Time;durP1;ratioP1;P1;durP2;ratioP2;P2;SDS_P1;SDS_P2;PMS_P1;PMS_P2;Temp;Humidity;BMP_temperature;BMP_pressure;BME280_temperature;BME280_humidity;BME280_pressure;Samples;Min_cycle;Max_cycle;Signal;HPM_P1;HPM_P2
2021/08/31 00:01:29;;;;;;;12.40;5.97;;;;;;;16.97;100.00;96429.16;4977698;28;20683;-73
2021/08/31 00:03:55;;;;;;;11.55;6.95;;;;;;;16.92;100.00;96429.81;4976467;28;20730;-73
2021/08/31 00:06:22;;;;;;;10.13;6.40;;;;;;;17.05;100.00;96429.75;4977118;28;20577;-73
2021/08/31 00:08:48;;;;;;;12.18;7.07;;;;;;;17.05;100.00;96432.41;4977578;28;20272;-74
2021/08/31 00:11:16;;;;;;;14.35;7.07;;;;;;;17.21;100.00;96427.41;4978790;28;20212;-74
2021/08/31 00:13:42;;;;;;;12.32;7.13;;;;;;;17.03;100.00;96431.00;4977853;28;20222;-73
2021/08/31 00:16:09;;;;;;;12.73;6.90;;;;;;;16.93;100.00;96435.94;4976865;28;20390;-71
2021/08/31 00:18:35;;;;;;;12.85;7.13;;;;;;;16.81;100.00;96434.97;4978243;28;20204;-71
2021/08/31 00:21:02;;;;;;;12.00;7.35;;;;;;;16.88;100.00;96443.75;4978051;28;20215;-73
2021/08/31 00:23:28;;;;;;;11.60;6.30;;;;;;;16.85;100.00;96441.50;4977171;28;20668;-71
2021/08/31 00:25:55;;;;;;;14.95;7.63;;;;;;;16.84;100.00;96434.53;4977064;28;20250;-74
2021/08/31 00:28:23;;;;;;;14.77;7.95;;;;;;;16.91;100.00;96438.03;4977616;28;20199;-73
2021/08/31 00:30:49;;;;;;;13.73;6.75;;;;;;;16.81;100.00;96437.63;4977254;28;20234;-73
2021/08/31 00:33:16;;;;;;;12.50;6.90;;;;;;;16.71;100.00;96437.25;4977355;28;20777;-71
2021/08/31 00:35:42;;;;;;;11.80;6.85;;;;;;;16.80;100.00;96438.66;4976832;28;20234;-72
2021/08/31 00:38:09;;;;;;;15.50;6.97;;;;;;;16.75;100.00;96446.44;4976618;28;20295;-74
2021/08/31 00:40:35;;;;;;;10.00;6.50;;;;;;;16.76;100.00;96450.75;4977310;28;20207;-71
2021/08/31 00:43:02;;;;;;;9.82;6.22;;;;;;;16.76;100.00;96443.59;4977727;28;20214;-74
2021/08/31 00:45:30;;;;;;;11.38;7.15;;;;;;;16.92;100.00;96444.97;4976283;28;20231;-71
2021/08/31 00:47:57;;;;;;;12.68;6.50;;;;;;;16.84;100.00;96439.88;4977159;28;20200;-72
2021/08/31 00:50:23;;;;;;;12.32;7.40;;;;;;;16.83;100.00;96449.72;4977188;28;20203;-71
2021/08/31 00:52:50;;;;;;;12.65;6.93;;;;;;;16.85;100.00;96449.50;4977805;28;20207;-74
2021/08/31 00:55:16;;;;;;;13.52;7.57;;;;;;;16.86;100.00;96446.63;4976522;28;20227;-72
2021/08/31 00:57:43;;;;;;;13.68;7.70;;;;;;;16.86;100.00;96453.81;4977285;28;20208;-72
2021/08/31 01:00:12;;;;;;;11.50;6.85;;;;;;;16.98;100.00;96450.28;4977616;28;20687;-73
2021/08/31 01:02:40;;;;;;;12.98;6.93;;;;;;;17.07;100.00;96461.50;4977164;28;20207;-73
2021/08/31 01:05:08;;;;;;;14.55;7.20;;;;;;;17.01;100.00;96459.69;4973701;28;20207;-74
2021/08/31 01:07:35;;;;;;;11.85;7.32;;;;;;;16.95;100.00;96458.66;4976393;28;20583;-74
2021/08/31 01:10:02;;;;;;;13.07;7.43;;;;;;;16.90;100.00;96466.47;4976964;28;20672;-71
2021/08/31 01:12:29;;;;;;;12.85;7.35;;;;;;;16.89;100.00;96464.03;4976061;28;20215;-72
2021/08/31 01:14:56;;;;;;;14.05;7.10;;;;;;;16.87;100.00;96464.22;4977799;28;20238;-73
2021/08/31 01:17:24;;;;;;;11.43;6.82;;;;;;;16.95;100.00;96471.16;4975781;28;20214;-71
2021/08/31 01:19:51;;;;;;;12.82;6.85;;;;;;;17.10;100.00;96473.34;4976973;28;20654;-71
2021/08/31 01:22:18;;;;;;;10.18;6.85;;;;;;;16.86;100.00;96467.09;4977131;28;20215;-73
2021/08/31 01:24:45;;;;;;;11.13;6.82;;;;;;;17.03;100.00;96460.28;4976836;28;20995;-73
2021/08/31 01:27:14;;;;;;;12.23;6.78;;;;;;;17.07;100.00;96466.81;4975262;28;20742;-73
2021/08/31 01:29:41;;;;;;;12.13;6.57;;;;;;;16.85;100.00;96473.44;4977248;28;20203;-71
2021/08/31 01:32:08;;;;;;;10.45;6.80;;;;;;;16.94;100.00;96470.38;4976467;28;20211;-74
2021/08/31 01:34:34;;;;;;;9.90;6.53;;;;;;;16.89;100.00;96467.50;4976723;28;21225;-74
2021/08/31 01:37:01;;;;;;;15.50;7.32;;;;;;;16.86;100.00;96469.78;4975565;28;20234;-71
2021/08/31 01:39:27;;;;;;;15.52;7.03;;;;;;;16.87;100.00;96472.22;4976680;28;20210;-72
2021/08/31 01:41:54;;;;;;;12.10;7.30;;;;;;;16.98;100.00;96473.41;4976037;28;20238;-71
2021/08/31 01:44:22;;;;;;;12.40;7.32;;;;;;;17.10;100.00;96476.00;4976830;28;20201;-74
2021/08/31 01:46:49;;;;;;;12.15;6.97;;;;;;;16.93;100.00;96470.56;4975826;28;20232;-73
2021/08/31 01:49:15;;;;;;;13.00;6.65;;;;;;;16.86;100.00;96475.09;4976488;28;20203;-74
2021/08/31 01:51:42;;;;;;;11.90;6.80;;;;;;;16.94;100.00;96477.53;4976088;28;20211;-72
2021/08/31 01:54:08;;;;;;;13.40;7.00;;;;;;;16.97;100.00;96469.09;4976545;28;20227;-73
2021/08/31 01:56:35;;;;;;;12.07;6.60;;;;;;;16.90;100.00;96476.31;4974826;28;20238;-71
2021/08/31 01:59:01;;;;;;;11.07;7.20;;;;;;;16.91;100.00;96476.09;4976271;28;20568;-73
2021/08/31 02:01:29;;;;;;;13.43;6.88;;;;;;;16.98;100.00;96470.75;4976076;28;20214;-74
2021/08/31 02:03:56;;;;;;;12.68;6.85;;;;;;;16.76;100.00;96474.72;4973149;28;20203;-73
2021/08/31 02:06:23;;;;;;;12.77;7.03;;;;;;;16.85;100.00;96465.47;4975628;28;20227;-73
2021/08/31 02:08:49;;;;;;;10.65;6.97;;;;;;;16.70;100.00;96465.72;4975674;28;20218;-73
2021/08/31 02:11:16;;;;;;;11.20;7.10;;;;;;;16.81;100.00;96475.72;4976336;28;20207;-73
2021/08/31 02:13:43;;;;;;;10.48;6.60;;;;;;;16.72;100.00;96470.84;4975956;28;20218;-73
2021/08/31 02:16:09;;;;;;;9.45;6.60;;;;;;;16.76;100.00;96466.72;4975340;28;20235;-73
2021/08/31 02:18:39;;;;;;;12.65;7.40;;;;;;;16.76;100.00;96464.06;4973070;28;20226;-71
2021/08/31 02:21:05;;;;;;;12.98;7.20;;;;;;;16.78;100.00;96470.00;4976756;28;20203;-72
2021/08/31 02:23:32;;;;;;;13.10;7.32;;;;;;;16.56;100.00;96471.28;4975689;28;20203;-73
2021/08/31 02:25:58;;;;;;;13.48;7.38;;;;;;;16.62;100.00;96471.28;4975086;28;20227;-72
2021/08/31 02:28:25;;;;;;;11.43;7.20;;;;;;;16.61;100.00;96479.44;4976632;28;20596;-71
2021/08/31 02:30:51;;;;;;;10.82;7.65;;;;;;;16.56;100.00;96482.75;4976131;28;20211;-73
2021/08/31 02:33:18;;;;;;;13.77;7.55;;;;;;;16.49;100.00;96476.59;4975309;28;20214;-73
2021/08/31 02:35:46;;;;;;;11.88;7.55;;;;;;;16.77;100.00;96479.81;4975148;28;20231;-71
2021/08/31 02:38:12;;;;;;;11.57;7.47;;;;;;;16.65;100.00;96475.38;4976371;28;20211;-73
2021/08/31 02:40:39;;;;;;;13.98;7.53;;;;;;;16.62;100.00;96475.75;4975483;28;20214;-73
2021/08/31 02:43:06;;;;;;;14.25;7.45;;;;;;;16.80;100.00;96478.59;4975951;28;20211;-71
2021/08/31 02:45:32;;;;;;;12.88;7.22;;;;;;;16.75;100.00;96479.22;4975197;28;20285;-73
2021/08/31 02:47:59;;;;;;;10.88;7.05;;;;;;;16.82;100.00;96476.53;4975453;28;20211;-74
2021/08/31 02:50:25;;;;;;;12.70;6.85;;;;;;;16.73;100.00;96473.28;4975402;28;20199;-71
2021/08/31 02:52:53;;;;;;;14.00;7.75;;;;;;;16.83;100.00;96476.34;4975034;28;20671;-73
2021/08/31 02:55:19;;;;;;;13.70;7.50;;;;;;;16.72;100.00;96481.47;4974771;28;20231;-74
2021/08/31 02:57:46;;;;;;;11.02;6.97;;;;;;;16.66;100.00;96484.97;4975545;28;20203;-73
2021/08/31 03:00:18;;;;;;;13.60;7.15;;;;;;;16.82;100.00;96476.53;4974929;28;20211;-73
2021/08/31 03:02:45;;;;;;;13.05;6.88;;;;;;;16.73;100.00;96480.47;4975011;28;20237;-71
2021/08/31 03:05:11;;;;;;;14.18;8.13;;;;;;;16.73;100.00;96480.47;4971760;28;20203;-71
2021/08/31 03:07:38;;;;;;;13.85;7.63;;;;;;;16.58;100.00;96487.84;4975188;28;20245;-74
2021/08/31 03:10:07;;;;;;;13.23;7.32;;;;;;;16.72;100.00;96478.81;4975177;28;20200;-73
2021/08/31 03:12:33;;;;;;;15.65;7.55;;;;;;;16.47;100.00;96488.50;4975531;28;20234;-72
2021/08/31 03:14:59;;;;;;;14.13;7.60;;;;;;;16.44;100.00;96488.91;4974646;28;20730;-71
2021/08/31 03:17:26;;;;;;;15.85;7.78;;;;;;;16.47;100.00;96488.50;4973589;28;20207;-74
2021/08/31 03:19:52;;;;;;;12.25;7.70;;;;;;;16.40;100.00;96489.53;4974603;28;20210;-71
2021/08/31 03:22:19;;;;;;;13.85;7.47;;;;;;;16.51;100.00;96492.38;4975301;28;20408;-72
2021/08/31 03:24:45;;;;;;;11.30;7.40;;;;;;;16.44;100.00;96494.22;4974652;28;20203;-72
2021/08/31 03:27:13;;;;;;;10.80;6.50;;;;;;;16.46;100.00;96494.00;4974154;28;20231;-71
2021/08/31 03:29:39;;;;;;;11.95;7.43;;;;;;;16.26;100.00;96493.22;4974629;28;20203;-72
2021/08/31 03:32:07;;;;;;;13.38;7.68;;;;;;;16.27;100.00;96498.34;4974915;28;20214;-73
2021/08/31 03:34:33;;;;;;;12.07;7.60;;;;;;;16.35;100.00;96494.66;4975291;28;21182;-71
2021/08/31 03:37:00;;;;;;;11.07;7.45;;;;;;;16.22;100.00;96503.41;4977695;28;20223;-72
2021/08/31 03:39:26;;;;;;;13.00;7.78;;;;;;;16.23;100.00;96507.72;4978890;28;20210;-74
2021/08/31 03:41:52;;;;;;;13.15;8.52;;;;;;;16.36;100.00;96505.06;4978238;28;20211;-72
2021/08/31 03:44:20;;;;;;;14.13;8.50;;;;;;;16.43;100.00;96499.75;4979343;28;20601;-73
2021/08/31 03:46:47;;;;;;;17.52;8.27;;;;;;;16.34;100.00;96500.97;4977124;28;20707;-74
2021/08/31 03:49:13;;;;;;;14.65;7.38;;;;;;;16.37;100.00;96505.88;4978054;28;20218;-71
2021/08/31 03:51:39;;;;;;;15.88;7.00;;;;;;;16.23;100.00;96499.75;4978904;28;20211;-74
2021/08/31 03:54:06;;;;;;;13.30;7.43;;;;;;;16.29;100.00;96493.59;4978480;28;20219;-73
2021/08/31 03:56:32;;;;;;;12.63;7.70;;;;;;;16.32;100.00;96500.34;4976645;28;20238;-74
2021/08/31 03:58:59;;;;;;;11.95;7.50;;;;;;;16.09;100.00;96497.28;4978451;28;20223;-74
2021/08/31 04:01:27;;;;;;;12.13;7.57;;;;;;;16.34;100.00;96506.31;4978440;28;20567;-73
2021/08/31 04:03:53;;;;;;;12.45;8.35;;;;;;;16.21;100.00;96511.59;4974395;28;20203;-74
2021/08/31 04:06:19;;;;;;;12.60;7.63;;;;;;;16.12;100.00;96515.47;4977912;28;20273;-71
2021/08/31 04:08:46;;;;;;;15.00;7.97;;;;;;;16.07;100.00;96518.75;4977925;28;20208;-73
2021/08/31 04:11:13;;;;;;;18.23;8.35;;;;;;;16.10;100.00;96518.34;4977940;28;20203;-73
2021/08/31 04:13:39;;;;;;;12.05;7.25;;;;;;;16.03;100.00;96517.50;4977714;28;20241;-72
2021/08/31 04:16:06;;;;;;;12.63;7.65;;;;;;;16.08;100.00;96524.91;4977751;28;20231;-72
2021/08/31 04:18:34;;;;;;;16.23;7.53;;;;;;;16.22;100.00;96524.69;4977561;28;20222;-72
2021/08/31 04:21:00;;;;;;;14.32;7.10;;;;;;;16.09;100.00;96527.34;4978303;28;20211;-73
2021/08/31 04:23:27;;;;;;;10.82;7.00;;;;;;;16.06;100.00;96529.56;4977577;28;20227;-72
2021/08/31 04:25:53;;;;;;;11.90;6.95;;;;;;;16.08;100.00;96533.69;4977135;28;20733;-72
2021/08/31 04:28:20;;;;;;;10.82;7.10;;;;;;;16.17;100.00;96536.97;4977138;28;20210;-73
2021/08/31 04:30:46;;;;;;;15.32;7.82;;;;;;;16.07;100.00;96533.88;4977947;28;20214;-74
2021/08/31 04:33:13;;;;;;;14.95;7.82;;;;;;;16.04;100.00;96540.44;4977260;28;20698;-73
2021/08/31 04:35:41;;;;;;;18.75;8.00;;;;;;;16.26;100.00;96551.72;4976451;28;21009;-73
2021/08/31 04:38:07;;;;;;;15.57;8.27;;;;;;;16.16;100.00;96557.41;4977168;28;20238;-73
2021/08/31 04:40:34;;;;;;;13.05;6.85;;;;;;;16.10;100.00;96546.75;4977520;28;20587;-72
2021/08/31 04:43:00;;;;;;;12.45;7.43;;;;;;;16.15;100.00;96545.16;4977143;28;20238;-73
2021/08/31 04:45:27;;;;;;;11.43;7.82;;;;;;;16.23;100.00;96552.91;4976269;28;20223;-71
2021/08/31 04:47:53;;;;;;;14.73;8.88;;;;;;;16.45;100.00;96546.41;4976148;28;20203;-71
2021/08/31 04:50:20;;;;;;;13.90;8.02;;;;;;;16.40;100.00;96540.06;4977203;28;20207;-72
2021/08/31 04:52:47;;;;;;;12.68;7.50;;;;;;;16.44;100.00;96538.63;4977195;28;20218;-71
2021/08/31 04:55:14;;;;;;;14.88;8.52;;;;;;;16.13;100.00;96549.03;4976432;28;20234;-73
2021/08/31 04:57:40;;;;;;;13.00;8.23;;;;;;;16.28;100.00;96552.31;4976878;28;20942;-73
2021/08/31 05:00:08;;;;;;;19.25;8.05;;;;;;;16.52;100.00;96547.19;4977467;28;21077;-72
2021/08/31 05:02:36;;;;;;;13.55;7.72;;;;;;;16.51;100.00;96546.41;4977389;28;20214;-71
2021/08/31 05:05:03;;;;;;;14.65;7.90;;;;;;;16.65;100.00;96553.34;4973883;28;20656;-72
2021/08/31 05:07:30;;;;;;;14.25;7.70;;;;;;;16.51;100.00;96558.91;4976075;28;20851;-72
2021/08/31 05:09:57;;;;;;;11.10;7.45;;;;;;;16.67;100.00;96550.47;4976704;28;20761;-71
2021/08/31 05:12:24;;;;;;;14.20;8.32;;;;;;;16.48;100.00;96551.31;4977225;28;20204;-70
2021/08/31 05:14:50;;;;;;;11.98;7.40;;;;;;;16.53;100.00;96555.00;4976686;28;20207;-70
2021/08/31 05:17:17;;;;;;;12.75;7.38;;;;;;;16.31;100.00;96555.41;4976305;28;20238;-71
2021/08/31 05:19:43;;;;;;;15.15;8.32;;;;;;;16.57;100.00;96560.72;4976480;28;21050;-71
2021/08/31 05:22:10;;;;;;;11.88;7.53;;;;;;;16.60;100.00;96555.00;4977000;28;20708;-71
2021/08/31 05:24:38;;;;;;;14.55;7.53;;;;;;;16.54;100.00;96558.47;4976760;28;20252;-71
2021/08/31 05:27:06;;;;;;;12.40;7.53;;;;;;;16.70;100.00;96566.00;4976231;28;20609;-71
2021/08/31 05:29:33;;;;;;;11.80;7.38;;;;;;;16.53;100.00;96565.66;4976436;28;20233;-70
2021/08/31 05:31:59;;;;;;;12.93;7.60;;;;;;;16.48;100.00;96568.09;4977169;28;20211;-72
2021/08/31 05:34:26;;;;;;;12.95;7.18;;;;;;;16.60;100.00;96565.63;4976385;28;20211;-72
2021/08/31 05:36:52;;;;;;;13.55;7.40;;;;;;;16.65;100.00;96574.63;4975936;28;20235;-72
2021/08/31 05:39:18;;;;;;;12.35;7.47;;;;;;;16.79;100.00;96567.44;4976574;28;21016;-72
2021/08/31 05:41:45;;;;;;;11.50;7.88;;;;;;;16.81;100.00;96570.72;4976541;28;20203;-72
2021/08/31 05:44:13;;;;;;;13.10;7.45;;;;;;;17.04;100.00;96571.91;4976535;28;20203;-71
2021/08/31 05:46:39;;;;;;;14.65;7.40;;;;;;;16.78;100.00;96579.13;4975423;28;20219;-72
2021/08/31 05:49:06;;;;;;;11.40;7.35;;;;;;;16.74;100.00;96575.25;4975793;28;20207;-72
2021/08/31 05:51:32;;;;;;;13.45;7.45;;;;;;;16.85;100.00;96569.28;4976745;28;20659;-72
2021/08/31 05:53:58;;;;;;;10.73;7.43;;;;;;;16.77;100.00;96580.16;4976562;28;20222;-72
2021/08/31 05:56:25;;;;;;;13.77;7.75;;;;;;;16.70;100.00;96580.16;4975249;28;20238;-72
2021/08/31 05:58:51;;;;;;;12.82;7.30;;;;;;;16.83;100.00;96588.13;4976441;28;20207;-72
2021/08/31 06:01:19;;;;;;;9.43;6.68;;;;;;;16.96;100.00;96589.97;4976467;28;20222;-72
2021/08/31 06:03:47;;;;;;;13.68;7.18;;;;;;;17.11;100.00;96588.69;4972818;28;20215;-72
2021/08/31 06:06:15;;;;;;;14.98;7.22;;;;;;;16.80;100.00;96588.56;4975140;28;20238;-70
2021/08/31 06:08:42;;;;;;;12.82;7.40;;;;;;;16.62;100.00;96595.50;4976302;28;20591;-72
2021/08/31 06:11:08;;;;;;;12.57;6.95;;;;;;;16.81;100.00;96592.00;4976033;28;20961;-71
2021/08/31 06:13:35;;;;;;;14.23;7.50;;;;;;;16.71;100.00;96596.94;4976786;28;20222;-72
2021/08/31 06:16:01;;;;;;;13.98;7.22;;;;;;;16.82;100.00;96598.97;4975130;28;20231;-72
2021/08/31 06:18:29;;;;;;;13.50;7.05;;;;;;;17.07;100.00;96602.63;4976089;28;20218;-72
2021/08/31 06:20:55;;;;;;;11.73;7.15;;;;;;;16.97;100.00;96600.41;4975646;28;20207;-71
2021/08/31 06:23:22;;;;;;;15.23;7.25;;;;;;;16.72;100.00;96607.38;4976382;28;20202;-73
2021/08/31 06:25:48;;;;;;;14.35;7.53;;;;;;;16.90;100.00;96604.09;4974986;28;20220;-71
2021/08/31 06:28:15;;;;;;;13.02;7.65;;;;;;;17.01;100.00;96604.28;4975887;28;20199;-71
2021/08/31 06:30:41;;;;;;;12.02;7.43;;;;;;;17.02;100.00;96610.41;4975171;28;20207;-72
2021/08/31 06:33:08;;;;;;;12.35;7.72;;;;;;;17.12;100.00;96611.63;4975963;28;20218;-72
2021/08/31 06:35:36;;;;;;;13.85;7.57;;;;;;;17.25;99.06;96615.09;4974441;28;20246;-72
2021/08/31 06:38:02;;;;;;;12.68;7.30;;;;;;;17.25;98.61;96615.09;4975387;28;20207;-72
2021/08/31 06:40:29;;;;;;;10.45;7.22;;;;;;;17.10;99.16;96622.47;4974879;28;20698;-70
2021/08/31 06:42:55;;;;;;;15.70;7.40;;;;;;;17.18;99.95;96618.78;4975527;28;20204;-71
2021/08/31 06:45:22;;;;;;;10.57;7.70;;;;;;;17.22;99.73;96628.81;4974765;28;20230;-71
2021/08/31 06:47:48;;;;;;;10.77;7.28;;;;;;;16.86;100.00;96624.97;4974433;28;20207;-70
2021/08/31 06:50:16;;;;;;;12.10;7.50;;;;;;;16.83;100.00;96627.25;4975180;28;20233;-72
2021/08/31 06:52:45;;;;;;;11.35;7.25;;;;;;;17.09;100.00;96620.88;4975540;28;20215;-72
2021/08/31 06:55:12;;;;;;;13.70;8.13;;;;;;;17.14;100.00;96629.06;4974337;28;20785;-70
2021/08/31 06:57:39;;;;;;;11.95;7.50;;;;;;;17.19;100.00;96636.41;4974920;28;20733;-72
2021/08/31 07:00:08;;;;;;;14.25;7.50;;;;;;;17.45;100.00;96631.88;4976351;28;20203;-72
2021/08/31 07:02:35;;;;;;;15.07;8.25;;;;;;;17.07;100.00;96632.75;4974763;28;20207;-72
2021/08/31 07:05:02;;;;;;;14.18;7.80;;;;;;;17.40;100.00;96626.34;4971902;28;20214;-70
2021/08/31 07:07:28;;;;;;;16.10;8.32;;;;;;;17.43;98.82;96627.78;4974654;28;20218;-71
2021/08/31 07:09:56;;;;;;;17.95;8.40;;;;;;;17.66;98.34;96626.25;4974314;28;20702;-71
2021/08/31 07:12:22;;;;;;;13.00;7.82;;;;;;;17.18;98.95;96624.94;4975050;28;20214;-72
2021/08/31 07:14:51;;;;;;;12.05;7.50;;;;;;;17.64;97.57;96630.97;4974940;28;20214;-72
2021/08/31 07:17:17;;;;;;;15.90;8.32;;;;;;;17.53;99.24;96623.63;4973697;28;20231;-72
2021/08/31 07:19:44;;;;;;;12.88;7.63;;;;;;;17.52;98.69;96630.00;4975203;28;20207;-71
2021/08/31 07:22:12;;;;;;;13.15;7.07;;;;;;;17.75;98.00;96632.97;4974871;28;20211;-72
2021/08/31 07:24:38;;;;;;;11.88;6.88;;;;;;;17.66;95.21;96636.91;4974760;28;20214;-71
2021/08/31 07:27:06;;;;;;;10.95;6.85;;;;;;;17.77;95.67;96638.94;4973940;28;20504;-71
2021/08/31 07:29:33;;;;;;;13.43;7.50;;;;;;;17.73;95.37;96645.69;4975225;28;20231;-72
2021/08/31 07:31:59;;;;;;;12.90;6.93;;;;;;;17.80;95.89;96644.63;4975045;28;20207;-71
2021/08/31 07:34:27;;;;;;;11.98;7.75;;;;;;;17.86;96.47;96646.47;4974617;28;20233;-71
2021/08/31 07:36:54;;;;;;;11.45;7.18;;;;;;;17.91;94.49;96654.66;4973780;28;20855;-70
2021/08/31 07:39:20;;;;;;;11.93;7.20;;;;;;;17.58;96.62;96653.16;4974941;28;20203;-72
2021/08/31 07:41:47;;;;;;;14.82;7.55;;;;;;;17.79;95.78;96651.03;4974347;28;20972;-71
2021/08/31 07:44:15;;;;;;;16.73;7.65;;;;;;;18.06;95.91;96657.88;4973008;28;20211;-70
2021/08/31 07:46:46;;;;;;;13.80;6.88;;;;;;;18.05;94.42;96663.41;4973554;28;20227;-72
2021/08/31 07:49:13;;;;;;;12.15;7.57;;;;;;;18.18;94.49;96660.72;4974666;28;20219;-72
2021/08/31 07:51:39;;;;;;;13.98;8.15;;;;;;;18.48;93.74;96665.25;4974921;28;20206;-72
2021/08/31 07:54:06;;;;;;;13.77;6.90;;;;;;;18.22;93.69;96669.94;4974839;28;20335;-72
2021/08/31 07:56:32;;;;;;;10.73;7.05;;;;;;;18.24;93.60;96678.53;4973193;28;20227;-70
2021/08/31 07:58:58;;;;;;;10.75;6.15;;;;;;;18.17;91.56;96680.38;4974745;28;20218;-72
2021/08/31 08:01:26;;;;;;;11.55;6.13;;;;;;;18.50;92.11;96665.84;4975042;28;20204;-71
2021/08/31 08:03:53;;;;;;;12.32;6.90;;;;;;;18.56;93.24;96670.34;4971517;28;20214;-72
2021/08/31 08:06:20;;;;;;;11.30;6.53;;;;;;;18.66;92.41;96666.16;4972945;28;20223;-71
2021/08/31 08:08:47;;;;;;;10.90;6.63;;;;;;;18.75;91.71;96667.53;4974777;28;20218;-72
2021/08/31 08:11:13;;;;;;;11.48;6.38;;;;;;;18.80;91.14;96672.19;4974773;28;20214;-73
2021/08/31 08:13:39;;;;;;;13.10;6.38;;;;;;;18.77;92.68;96673.44;4971962;28;20217;-72
2021/08/31 08:16:06;;;;;;;9.48;5.63;;;;;;;18.63;90.93;96671.91;4973389;28;20239;-72
2021/08/31 08:18:35;;;;;;;10.18;6.05;;;;;;;18.71;88.85;96669.00;4974375;28;20222;-71
2021/08/31 08:21:01;;;;;;;6.93;4.55;;;;;;;18.46;88.34;96675.31;4974740;28;20211;-72
2021/08/31 08:23:28;;;;;;;9.85;5.25;;;;;;;18.66;87.08;96670.66;4977177;28;20230;-72
2021/08/31 08:25:55;;;;;;;8.80;5.45;;;;;;;18.98;88.21;96673.91;4976022;28;20304;-72
2021/08/31 08:28:23;;;;;;;8.43;5.72;;;;;;;18.70;89.53;96675.38;4976949;28;20210;-72
2021/08/31 08:30:50;;;;;;;10.32;5.72;;;;;;;18.71;87.14;96677.00;4976635;28;20822;-70
2021/08/31 08:33:17;;;;;;;10.93;5.97;;;;;;;18.49;87.58;96686.38;4977390;28;20242;-73
2021/08/31 08:35:45;;;;;;;10.48;5.18;;;;;;;18.86;87.18;96687.38;4975938;28;20939;-73
2021/08/31 08:38:11;;;;;;;8.35;5.07;;;;;;;18.88;87.61;96694.13;4976545;28;20614;-70
2021/08/31 08:40:38;;;;;;;7.18;4.82;;;;;;;18.84;87.68;96690.25;4976868;28;20672;-72
2021/08/31 08:43:06;;;;;;;8.63;5.40;;;;;;;18.79;88.26;96686.59;4977035;28;20207;-72
2021/08/31 08:45:33;;;;;;;9.80;5.78;;;;;;;18.74;88.24;96695.25;4975523;28;20231;-73
2021/08/31 08:48:00;;;;;;;13.10;5.05;;;;;;;18.78;84.46;96696.44;4976963;28;20672;-72
2021/08/31 08:50:28;;;;;;;9.13;5.57;;;;;;;18.75;86.28;96690.72;4975968;28;20526;-71
2021/08/31 08:52:56;;;;;;;11.07;5.80;;;;;;;19.22;84.79;96699.00;4976523;28;20211;-72
2021/08/31 08:55:25;;;;;;;12.52;5.88;;;;;;;19.38;87.05;96698.47;4975258;28;20235;-72
2021/08/31 08:57:51;;;;;;;8.43;5.55;;;;;;;18.91;85.29;96703.56;4976994;28;20231;-72
2021/08/31 09:00:20;;;;;;;10.75;5.47;;;;;;;19.45;86.10;96710.72;4976305;28;20203;-73
2021/08/31 09:02:46;;;;;;;8.02;5.20;;;;;;;19.46;84.49;96695.50;4976911;28;20207;-72
2021/08/31 09:05:30;;;;;;;8.45;5.25;;;;;;;19.74;84.79;96710.84;4974145;28;20214;-72
2021/08/31 09:08:06;;;;;;;7.57;4.95;;;;;;;19.76;84.12;96716.78;4976383;28;20210;-71
2021/08/31 09:10:32;;;;;;;10.32;5.25;;;;;;;19.25;84.59;96719.97;4976633;28;21164;-70
2021/08/31 09:12:59;;;;;;;10.70;5.15;;;;;;;18.85;83.17;96713.25;4977179;28;20710;-72
2021/08/31 09:15:29;;;;;;;6.78;4.72;;;;;;;18.96;82.77;96712.56;4975851;28;20224;-73
2021/08/31 09:18:14;;;;;;;8.60;4.47;;;;;;;18.73;83.02;96720.31;4976255;28;20227;-72
2021/08/31 09:20:45;;;;;;;7.30;4.35;;;;;;;18.43;85.21;96721.94;4976810;28;20211;-72
2021/08/31 09:23:19;;;;;;;11.00;4.40;;;;;;;18.49;83.84;96721.06;4976292;28;20222;-72
2021/08/31 09:25:48;;;;;;;6.45;4.43;;;;;;;18.66;85.02;96719.56;4975600;28;21077;-73
2021/08/31 09:28:23;;;;;;;10.10;4.93;;;;;;;18.72;84.93;96716.00;4976631;28;20655;-72
2021/08/31 09:30:59;;;;;;;6.90;4.10;;;;;;;18.81;82.36;96717.38;4976225;28;20211;-72
2021/08/31 09:33:26;;;;;;;9.32;4.20;;;;;;;18.76;83.53;96717.22;4975759;28;20671;-71
2021/08/31 09:36:06;;;;;;;7.68;4.50;;;;;;;19.31;82.34;96713.72;4975791;28;20231;-71
2021/08/31 09:38:50;;;;;;;8.25;4.45;;;;;;;19.29;80.50;96715.81;4977173;28;20234;-72
2021/08/31 09:41:27;;;;;;;9.00;4.50;;;;;;;19.30;81.53;96718.25;4976041;28;20213;-75
2021/08/31 09:43:55;;;;;;;6.40;4.45;;;;;;;19.18;81.94;96719.19;4976187;28;20467;-71
2021/08/31 09:46:21;;;;;;;9.05;4.95;;;;;;;18.75;81.94;96726.28;4976219;28;20252;-72
2021/08/31 09:48:48;;;;;;;6.63;4.07;;;;;;;18.64;83.18;96726.94;4976826;28;20211;-71
2021/08/31 09:51:15;;;;;;;8.70;4.50;;;;;;;18.53;83.78;96724.97;4975654;28;20215;-71
2021/08/31 09:53:44;;;;;;;7.75;4.25;;;;;;;18.55;82.85;96730.09;4976578;28;20222;-72
2021/08/31 09:56:12;;;;;;;9.27;4.43;;;;;;;18.23;84.48;96732.91;4976053;28;20227;-72
2021/08/31 09:58:39;;;;;;;9.75;4.90;;;;;;;18.33;82.77;96731.44;4972800;28;20346;-71
2021/08/31 10:01:06;;;;;;;6.30;4.55;;;;;;;18.09;84.76;96739.31;4974973;28;20214;-72
2021/08/31 10:03:33;;;;;;;8.73;5.00;;;;;;;18.10;85.66;96732.94;4973197;28;20216;-71
2021/08/31 10:06:01;;;;;;;9.80;4.88;;;;;;;18.10;86.85;96738.25;4974284;28;20227;-72
2021/08/31 10:08:32;;;;;;;8.13;5.10;;;;;;;18.35;86.37;96746.22;4974555;28;20203;-72
2021/08/31 10:11:02;;;;;;;7.47;4.80;;;;;;;18.26;86.65;96743.19;4975669;28;20222;-71
2021/08/31 10:13:29;;;;;;;8.02;5.10;;;;;;;18.28;87.05;96739.25;4974752;28;20203;-71
2021/08/31 10:15:58;;;;;;;8.00;4.93;;;;;;;18.72;84.52;96737.34;4973923;28;20224;-72
2021/08/31 10:18:26;;;;;;;8.00;4.65;;;;;;;18.47;85.24;96741.03;4975898;28;20250;-71
2021/08/31 10:20:54;;;;;;;9.27;4.75;;;;;;;18.70;85.78;96742.13;4976005;28;20564;-72
2021/08/31 10:23:26;;;;;;;7.10;4.78;;;;;;;18.96;84.38;96739.25;4975760;28;20214;-70
2021/08/31 10:25:52;;;;;;;7.72;4.68;;;;;;;18.45;84.36;96743.88;4974990;28;20223;-70
2021/08/31 10:28:27;;;;;;;7.97;5.05;;;;;;;18.58;83.46;96743.00;4975906;28;20214;-72
2021/08/31 10:30:55;;;;;;;8.88;4.85;;;;;;;18.67;86.80;96747.06;4975596;28;20210;-71
2021/08/31 10:33:31;;;;;;;9.13;4.53;;;;;;;19.11;83.23;96742.47;4975524;28;20211;-70
2021/08/31 10:35:58;;;;;;;8.65;4.85;;;;;;;18.91;85.04;96735.59;4975196;28;20227;-70
2021/08/31 10:38:58;;;;;;;9.00;5.13;;;;;;;19.16;83.59;96742.66;4973895;28;20237;-71
2021/08/31 10:41:44;;;;;;;8.68;4.72;;;;;;;19.19;84.26;96743.00;4914025;28;20225;-72
2021/08/31 10:44:30;;;;;;;10.10;5.20;;;;;;;19.26;83.14;96745.66;4914047;28;20210;-71
2021/08/31 10:47:08;;;;;;;7.05;4.78;;;;;;;19.57;83.85;96741.84;4955048;28;20230;-72
2021/08/31 10:50:14;;;;;;;6.38;4.65;;;;;;;19.57;80.86;96749.88;4974169;28;20211;-72
2021/08/31 10:52:42;;;;;;;9.15;4.63;;;;;;;19.64;81.71;96753.31;4973595;28;20222;-72
2021/08/31 10:55:32;;;;;;;7.10;4.28;;;;;;;19.67;76.96;96752.84;4974272;28;20223;-72
2021/08/31 10:57:59;;;;;;;8.70;4.57;;;;;;;19.81;77.21;96749.03;4975199;28;20231;-71
2021/08/31 11:01:02;;;;;;;6.35;4.25;;;;;;;20.05;75.61;96750.84;4975186;28;21139;-70
2021/08/31 11:03:37;;;;;;;8.43;4.43;;;;;;;19.83;77.85;96752.31;4972741;28;20203;-72
2021/08/31 11:06:31;;;;;;;8.77;4.70;;;;;;;19.74;78.57;96763.50;4974555;28;20229;-73
2021/08/31 11:09:27;;;;;;;6.45;4.53;;;;;;;19.66;79.85;96761.09;4975190;28;20307;-72
2021/08/31 11:12:05;;;;;;;5.93;3.75;;;;;;;19.11;80.30;96761.19;4974590;28;20241;-72
2021/08/31 11:14:51;;;;;;;5.30;3.97;;;;;;;19.26;80.31;96764.38;4975084;28;20218;-72
2021/08/31 11:17:38;;;;;;;6.72;4.10;;;;;;;19.12;79.83;96763.63;4973720;28;20245;-72
2021/08/31 11:20:28;;;;;;;7.95;4.82;;;;;;;19.15;81.79;96765.06;4975111;28;20313;-72
2021/08/31 11:23:09;;;;;;;9.63;4.40;;;;;;;19.15;80.43;96762.38;4974845;28;20302;-71
2021/08/31 11:25:37;;;;;;;8.40;4.35;;;;;;;19.20;80.73;96767.91;4973457;28;20230;-72
2021/08/31 11:28:06;;;;;;;7.35;4.00;;;;;;;19.18;79.90;96773.47;4974546;28;20256;-71